sensor_id;sensor_type;location;lat;lon;timestamp;P1;durP1;ratioP1;P2;durP2;ratioP2
15573;SDS011;7888;46.748;8.102;2023-05-10T00:01:25;0.20;;;0.20;;
15573;SDS011;7888;46.748;8.102;2023-05-10T00:03:51;0.10;;;0.10;;
15573;SDS011;7888;46.748;8.102;2023-05-10T00:06:16;2.00;;;0.10;;
15573;SDS011;7888;46.748;8.102;2023-05-10T00:08:42;1.43;;;0.20;;
15573;SDS011;7888;46.748;8.102;2023-05-10T00:11:10;0.10;;;0.10;;
15573;SDS011;7888;46.748;8.102;2023-05-10T00:13:36;0.67;;;0.13;;
15573;SDS011;7888;46.748;8.102;2023-05-10T00:16:02;0.20;;;0.03;;
15573;SDS011;7888;46.748;8.102;2023-05-10T00:18:28;0.13;;;0.10;;
15573;SDS011;7888;46.748;8.102;2023-05-10T00:20:53;0.50;;;0.20;;
15573;SDS011;7888;46.748;8.102;2023-05-10T00:23:19;0.20;;;0.10;;
15573;SDS011;7888;46.748;8.102;2023-05-10T00:25:45;1.07;;;0.10;;
15573;SDS011;7888;46.748;8.102;2023-05-10T00:28:10;0.30;;;0.20;;
15573;SDS011;7888;46.748;8.102;2023-05-10T00:30:36;0.20;;;0.20;;
15573;SDS011;7888;46.748;8.102;2023-05-10T00:33:02;1.20;;;0.20;;
15573;SDS011;7888;46.748;8.102;2023-05-10T00:35:28;0.10;;;0.10;;
15573;SDS011;7888;46.748;8.102;2023-05-10T00:37:53;0.20;;;0.10;;
15573;SDS011;7888;46.748;8.102;2023-05-10T00:40:19;1.63;;;0.20;;
15573;SDS011;7888;46.748;8.102;2023-05-10T00:42:45;0.43;;;0.20;;
15573;SDS011;7888;46.748;8.102;2023-05-10T00:45:11;0.10;;;0.10;;
15573;SDS011;7888;46.748;8.102;2023-05-10T00:47:37;0.17;;;0.10;;
15573;SDS011;7888;46.748;8.102;2023-05-10T00:50:04;0.10;;;0.10;;
15573;SDS011;7888;46.748;8.102;2023-05-10T00:52:31;1.53;;;0.10;;
15573;SDS011;7888;46.748;8.102;2023-05-10T00:54:57;0.57;;;0.10;;
15573;SDS011;7888;46.748;8.102;2023-05-10T00:57:23;0.10;;;0.10;;
15573;SDS011;7888;46.748;8.102;2023-05-10T00:59:49;0.77;;;0.17;;
15573;SDS011;7888;46.748;8.102;2023-05-10T01:02:16;0.83;;;0.20;;
15573;SDS011;7888;46.748;8.102;2023-05-10T01:04:42;1.50;;;0.10;;
15573;SDS011;7888;46.748;8.102;2023-05-10T01:07:08;2.00;;;0.10;;
15573;SDS011;7888;46.748;8.102;2023-05-10T01:09:34;0.00;;;0.00;;
15573;SDS011;7888;46.748;8.102;2023-05-10T01:12:00;0.20;;;0.10;;
15573;SDS011;7888;46.748;8.102;2023-05-10T01:14:28;1.70;;;0.10;;
15573;SDS011;7888;46.748;8.102;2023-05-10T01:16:55;2.20;;;0.20;;
15573;SDS011;7888;46.748;8.102;2023-05-10T01:19:25;0.27;;;0.10;;
15573;SDS011;7888;46.748;8.102;2023-05-10T01:24:40;0.43;;;0.10;;
15573;SDS011;7888;46.748;8.102;2023-05-10T01:28:16;0.10;;;0.10;;
15573;SDS011;7888;46.748;8.102;2023-05-10T01:30:43;0.00;;;0.00;;
15573;SDS011;7888;46.748;8.102;2023-05-10T01:33:47;0.30;;;0.10;;
15573;SDS011;7888;46.748;8.102;2023-05-10T01:37:18;1.40;;;0.17;;
15573;SDS011;7888;46.748;8.102;2023-05-10T01:39:36;0.10;;;0.10;;
15573;SDS011;7888;46.748;8.102;2023-05-10T01:42:26;0.93;;;0.10;;
15573;SDS011;7888;46.748;8.102;2023-05-10T01:45:18;1.20;;;0.20;;
15573;SDS011;7888;46.748;8.102;2023-05-10T01:47:50;3.63;;;0.20;;
15573;SDS011;7888;46.748;8.102;2023-05-10T01:50:30;0.10;;;0.10;;
15573;SDS011;7888;46.748;8.102;2023-05-10T01:52:59;0.73;;;0.10;;
15573;SDS011;7888;46.748;8.102;2023-05-10T01:55:32;1.20;;;0.10;;
15573;SDS011;7888;46.748;8.102;2023-05-10T01:58:09;0.43;;;0.10;;
15573;SDS011;7888;46.748;8.102;2023-05-10T02:00:40;0.20;;;0.10;;
15573;SDS011;7888;46.748;8.102;2023-05-10T02:03:11;0.33;;;0.20;;
15573;SDS011;7888;46.748;8.102;2023-05-10T02:05:39;1.80;;;0.27;;
15573;SDS011;7888;46.748;8.102;2023-05-10T02:08:10;0.20;;;0.10;;
15573;SDS011;7888;46.748;8.102;2023-05-10T02:10:38;0.10;;;0.10;;
15573;SDS011;7888;46.748;8.102;2023-05-10T02:13:05;2.00;;;0.20;;
15573;SDS011;7888;46.748;8.102;2023-05-10T02:15:33;1.90;;;0.20;;
15573;SDS011;7888;46.748;8.102;2023-05-10T02:18:01;0.17;;;0.10;;
15573;SDS011;7888;46.748;8.102;2023-05-10T02:20:30;1.27;;;0.20;;
15573;SDS011;7888;46.748;8.102;2023-05-10T02:22:58;0.20;;;0.20;;
15573;SDS011;7888;46.748;8.102;2023-05-10T02:25:26;1.53;;;0.20;;
15573;SDS011;7888;46.748;8.102;2023-05-10T02:27:55;1.50;;;0.33;;
15573;SDS011;7888;46.748;8.102;2023-05-10T02:30:22;0.20;;;0.20;;
15573;SDS011;7888;46.748;8.102;2023-05-10T02:32:49;0.77;;;0.37;;
15573;SDS011;7888;46.748;8.102;2023-05-10T02:35:16;0.30;;;0.20;;
15573;SDS011;7888;46.748;8.102;2023-05-10T02:37:43;0.30;;;0.20;;
15573;SDS011;7888;46.748;8.102;2023-05-10T02:40:11;2.53;;;0.20;;
15573;SDS011;7888;46.748;8.102;2023-05-10T02:42:39;0.40;;;0.10;;
15573;SDS011;7888;46.748;8.102;2023-05-10T02:45:11;0.63;;;0.10;;
15573;SDS011;7888;46.748;8.102;2023-05-10T02:47:49;0.93;;;0.20;;
15573;SDS011;7888;46.748;8.102;2023-05-10T02:50:15;0.30;;;0.20;;
15573;SDS011;7888;46.748;8.102;2023-05-10T02:52:50;0.63;;;0.40;;
15573;SDS011;7888;46.748;8.102;2023-05-10T02:55:19;1.67;;;0.10;;
15573;SDS011;7888;46.748;8.102;2023-05-10T02:58:00;0.93;;;0.17;;
15573;SDS011;7888;46.748;8.102;2023-05-10T03:00:27;0.60;;;0.10;;
15573;SDS011;7888;46.748;8.102;2023-05-10T03:02:53;1.27;;;0.27;;
15573;SDS011;7888;46.748;8.102;2023-05-10T03:05:20;0.50;;;0.40;;
15573;SDS011;7888;46.748;8.102;2023-05-10T03:07:46;0.20;;;0.10;;
15573;SDS011;7888;46.748;8.102;2023-05-10T03:10:13;1.50;;;0.30;;
15573;SDS011;7888;46.748;8.102;2023-05-10T03:16:14;0.10;;;0.10;;
15573;SDS011;7888;46.748;8.102;2023-05-10T03:18:45;0.57;;;0.20;;
15573;SDS011;7888;46.748;8.102;2023-05-10T03:21:21;0.30;;;0.10;;
15573;SDS011;7888;46.748;8.102;2023-05-10T03:23:57;1.17;;;0.30;;
15573;SDS011;7888;46.748;8.102;2023-05-10T03:26:30;1.70;;;0.20;;
15573;SDS011;7888;46.748;8.102;2023-05-10T03:28:58;1.20;;;0.10;;
15573;SDS011;7888;46.748;8.102;2023-05-10T03:31:25;1.10;;;0.10;;
15573;SDS011;7888;46.748;8.102;2023-05-10T03:33:52;0.73;;;0.20;;
15573;SDS011;7888;46.748;8.102;2023-05-10T03:36:18;2.03;;;0.20;;
15573;SDS011;7888;46.748;8.102;2023-05-10T03:38:44;0.13;;;0.13;;
15573;SDS011;7888;46.748;8.102;2023-05-10T03:41:10;0.27;;;0.23;;
15573;SDS011;7888;46.748;8.102;2023-05-10T03:43:36;0.10;;;0.10;;
15573;SDS011;7888;46.748;8.102;2023-05-10T03:46:05;0.17;;;0.10;;
15573;SDS011;7888;46.748;8.102;2023-05-10T03:48:34;0.20;;;0.10;;
15573;SDS011;7888;46.748;8.102;2023-05-10T03:50:59;0.20;;;0.20;;
15573;SDS011;7888;46.748;8.102;2023-05-10T03:53:25;0.10;;;0.10;;
15573;SDS011;7888;46.748;8.102;2023-05-10T03:55:51;1.63;;;0.17;;
15573;SDS011;7888;46.748;8.102;2023-05-10T03:58:17;0.43;;;0.10;;
15573;SDS011;7888;46.748;8.102;2023-05-10T04:00:43;0.10;;;0.10;;
15573;SDS011;7888;46.748;8.102;2023-05-10T04:03:10;0.20;;;0.20;;
15573;SDS011;7888;46.748;8.102;2023-05-10T04:05:37;0.63;;;0.10;;
15573;SDS011;7888;46.748;8.102;2023-05-10T04:08:03;0.20;;;0.20;;
15573;SDS011;7888;46.748;8.102;2023-05-10T04:10:30;0.33;;;0.07;;
15573;SDS011;7888;46.748;8.102;2023-05-10T04:12:56;0.40;;;0.13;;
15573;SDS011;7888;46.748;8.102;2023-05-10T04:15:22;0.20;;;0.13;;
15573;SDS011;7888;46.748;8.102;2023-05-10T04:17:48;2.00;;;0.20;;
15573;SDS011;7888;46.748;8.102;2023-05-10T04:20:14;0.63;;;0.20;;
15573;SDS011;7888;46.748;8.102;2023-05-10T04:22:40;1.70;;;0.20;;
15573;SDS011;7888;46.748;8.102;2023-05-10T04:25:06;0.20;;;0.20;;
15573;SDS011;7888;46.748;8.102;2023-05-10T04:27:32;0.80;;;0.30;;
15573;SDS011;7888;46.748;8.102;2023-05-10T04:29:58;2.30;;;0.40;;
15573;SDS011;7888;46.748;8.102;2023-05-10T04:32:24;1.53;;;0.20;;
15573;SDS011;7888;46.748;8.102;2023-05-10T04:34:50;0.80;;;0.50;;
15573;SDS011;7888;46.748;8.102;2023-05-10T04:37:16;3.73;;;0.70;;
15573;SDS011;7888;46.748;8.102;2023-05-10T04:39:43;1.30;;;0.80;;
15573;SDS011;7888;46.748;8.102;2023-05-10T04:42:09;2.80;;;1.63;;
15573;SDS011;7888;46.748;8.102;2023-05-10T04:44:35;2.53;;;1.53;;
15573;SDS011;7888;46.748;8.102;2023-05-10T04:47:01;1.20;;;0.80;;
15573;SDS011;7888;46.748;8.102;2023-05-10T04:49:28;1.43;;;0.60;;
15573;SDS011;7888;46.748;8.102;2023-05-10T04:51:54;1.90;;;0.50;;
15573;SDS011;7888;46.748;8.102;2023-05-10T04:54:20;0.97;;;0.30;;
15573;SDS011;7888;46.748;8.102;2023-05-10T04:56:46;1.03;;;0.20;;
15573;SDS011;7888;46.748;8.102;2023-05-10T04:59:12;0.37;;;0.30;;
15573;SDS011;7888;46.748;8.102;2023-05-10T05:01:38;0.20;;;0.20;;
15573;SDS011;7888;46.748;8.102;2023-05-10T05:04:04;0.20;;;0.10;;
15573;SDS011;7888;46.748;8.102;2023-05-10T05:06:30;0.90;;;0.30;;
15573;SDS011;7888;46.748;8.102;2023-05-10T05:08:56;0.43;;;0.20;;
15573;SDS011;7888;46.748;8.102;2023-05-10T05:11:21;0.50;;;0.40;;
15573;SDS011;7888;46.748;8.102;2023-05-10T05:13:47;1.57;;;0.30;;
15573;SDS011;7888;46.748;8.102;2023-05-10T05:16:13;1.07;;;0.30;;
15573;SDS011;7888;46.748;8.102;2023-05-10T05:18:39;0.30;;;0.20;;
15573;SDS011;7888;46.748;8.102;2023-05-10T05:21:17;0.87;;;0.30;;
15573;SDS011;7888;46.748;8.102;2023-05-10T05:23:45;1.23;;;0.20;;
15573;SDS011;7888;46.748;8.102;2023-05-10T05:26:11;0.47;;;0.30;;
15573;SDS011;7888;46.748;8.102;2023-05-10T05:28:37;1.37;;;0.20;;
15573;SDS011;7888;46.748;8.102;2023-05-10T05:31:06;0.33;;;0.30;;
15573;SDS011;7888;46.748;8.102;2023-05-10T05:33:32;2.17;;;0.40;;
15573;SDS011;7888;46.748;8.102;2023-05-10T05:36:02;9.33;;;0.97;;
15573;SDS011;7888;46.748;8.102;2023-05-10T05:38:29;1.13;;;0.40;;
15573;SDS011;7888;46.748;8.102;2023-05-10T05:40:55;1.13;;;0.40;;
15573;SDS011;7888;46.748;8.102;2023-05-10T05:43:22;0.37;;;0.30;;
15573;SDS011;7888;46.748;8.102;2023-05-10T05:45:48;1.60;;;0.40;;
15573;SDS011;7888;46.748;8.102;2023-05-10T05:48:14;0.30;;;0.30;;
15573;SDS011;7888;46.748;8.102;2023-05-10T05:50:40;0.83;;;0.30;;
15573;SDS011;7888;46.748;8.102;2023-05-10T05:53:05;0.50;;;0.30;;
15573;SDS011;7888;46.748;8.102;2023-05-10T05:55:31;0.20;;;0.20;;
15573;SDS011;7888;46.748;8.102;2023-05-10T05:57:57;1.00;;;0.30;;
15573;SDS011;7888;46.748;8.102;2023-05-10T06:00:23;0.30;;;0.13;;
15573;SDS011;7888;46.748;8.102;2023-05-10T06:02:49;1.77;;;0.80;;
15573;SDS011;7888;46.748;8.102;2023-05-10T06:05:15;0.37;;;0.23;;
15573;SDS011;7888;46.748;8.102;2023-05-10T06:07:41;0.50;;;0.40;;
15573;SDS011;7888;46.748;8.102;2023-05-10T06:10:07;0.93;;;0.50;;
15573;SDS011;7888;46.748;8.102;2023-05-10T06:12:34;0.30;;;0.30;;
15573;SDS011;7888;46.748;8.102;2023-05-10T06:15:00;0.37;;;0.37;;
15573;SDS011;7888;46.748;8.102;2023-05-10T06:17:26;0.47;;;0.40;;
15573;SDS011;7888;46.748;8.102;2023-05-10T06:19:52;0.50;;;0.37;;
15573;SDS011;7888;46.748;8.102;2023-05-10T06:22:18;0.50;;;0.50;;
15573;SDS011;7888;46.748;8.102;2023-05-10T06:24:43;0.30;;;0.30;;
15573;SDS011;7888;46.748;8.102;2023-05-10T06:27:09;0.40;;;0.40;;
15573;SDS011;7888;46.748;8.102;2023-05-10T06:29:35;1.33;;;0.30;;
15573;SDS011;7888;46.748;8.102;2023-05-10T06:32:01;0.37;;;0.30;;
15573;SDS011;7888;46.748;8.102;2023-05-10T06:34:27;1.00;;;0.40;;
15573;SDS011;7888;46.748;8.102;2023-05-10T06:36:52;0.37;;;0.20;;
15573;SDS011;7888;46.748;8.102;2023-05-10T06:39:18;0.40;;;0.30;;
15573;SDS011;7888;46.748;8.102;2023-05-10T06:41:44;1.40;;;0.40;;
15573;SDS011;7888;46.748;8.102;2023-05-10T06:44:10;0.43;;;0.33;;
15573;SDS011;7888;46.748;8.102;2023-05-10T06:46:36;1.90;;;0.40;;
15573;SDS011;7888;46.748;8.102;2023-05-10T06:49:02;0.57;;;0.20;;
15573;SDS011;7888;46.748;8.102;2023-05-10T06:51:28;2.57;;;0.40;;
15573;SDS011;7888;46.748;8.102;2023-05-10T06:53:54;0.90;;;0.30;;
15573;SDS011;7888;46.748;8.102;2023-05-10T06:56:19;1.43;;;0.40;;
15573;SDS011;7888;46.748;8.102;2023-05-10T06:58:46;0.87;;;0.40;;
15573;SDS011;7888;46.748;8.102;2023-05-10T07:01:13;0.23;;;0.20;;
15573;SDS011;7888;46.748;8.102;2023-05-10T07:03:39;0.60;;;0.40;;
15573;SDS011;7888;46.748;8.102;2023-05-10T07:06:05;2.70;;;0.33;;
15573;SDS011;7888;46.748;8.102;2023-05-10T07:08:32;4.33;;;0.33;;
15573;SDS011;7888;46.748;8.102;2023-05-10T07:11:02;0.57;;;0.40;;
15573;SDS011;7888;46.748;8.102;2023-05-10T07:13:30;1.17;;;0.50;;
15573;SDS011;7888;46.748;8.102;2023-05-10T07:15:57;0.60;;;0.60;;
15573;SDS011;7888;46.748;8.102;2023-05-10T07:18:24;0.80;;;0.50;;
15573;SDS011;7888;46.748;8.102;2023-05-10T07:20:50;1.40;;;0.40;;
15573;SDS011;7888;46.748;8.102;2023-05-10T07:23:16;0.60;;;0.37;;
15573;SDS011;7888;46.748;8.102;2023-05-10T07:25:48;0.40;;;0.40;;
15573;SDS011;7888;46.748;8.102;2023-05-10T07:28:17;0.30;;;0.30;;
15573;SDS011;7888;46.748;8.102;2023-05-10T07:30:43;0.50;;;0.40;;
15573;SDS011;7888;46.748;8.102;2023-05-10T07:33:10;1.93;;;0.60;;
15573;SDS011;7888;46.748;8.102;2023-05-10T07:35:37;0.70;;;0.50;;
15573;SDS011;7888;46.748;8.102;2023-05-10T07:38:03;1.33;;;0.40;;
15573;SDS011;7888;46.748;8.102;2023-05-10T07:40:29;1.07;;;0.40;;
15573;SDS011;7888;46.748;8.102;2023-05-10T07:42:56;0.40;;;0.40;;
15573;SDS011;7888;46.748;8.102;2023-05-10T07:45:22;0.33;;;0.33;;
15573;SDS011;7888;46.748;8.102;2023-05-10T07:47:48;0.47;;;0.40;;
15573;SDS011;7888;46.748;8.102;2023-05-10T07:50:14;0.30;;;0.30;;
15573;SDS011;7888;46.748;8.102;2023-05-10T07:52:40;0.57;;;0.30;;
15573;SDS011;7888;46.748;8.102;2023-05-10T07:55:07;0.40;;;0.20;;
15573;SDS011;7888;46.748;8.102;2023-05-10T07:57:34;0.30;;;0.20;;
15573;SDS011;7888;46.748;8.102;2023-05-10T07:59:59;1.07;;;0.20;;
15573;SDS011;7888;46.748;8.102;2023-05-10T08:02:26;3.50;;;0.50;;
15573;SDS011;7888;46.748;8.102;2023-05-10T08:04:51;0.87;;;0.30;;
15573;SDS011;7888;46.748;8.102;2023-05-10T08:07:17;0.20;;;0.10;;
15573;SDS011;7888;46.748;8.102;2023-05-10T08:09:43;0.30;;;0.30;;
15573;SDS011;7888;46.748;8.102;2023-05-10T08:12:09;0.80;;;0.40;;
15573;SDS011;7888;46.748;8.102;2023-05-10T08:14:35;0.20;;;0.20;;
15573;SDS011;7888;46.748;8.102;2023-05-10T08:17:03;0.30;;;0.30;;
15573;SDS011;7888;46.748;8.102;2023-05-10T08:19:29;1.43;;;0.20;;
15573;SDS011;7888;46.748;8.102;2023-05-10T08:21:55;0.20;;;0.20;;
15573;SDS011;7888;46.748;8.102;2023-05-10T08:24:21;0.30;;;0.20;;
15573;SDS011;7888;46.748;8.102;2023-05-10T08:26:47;0.77;;;0.20;;
15573;SDS011;7888;46.748;8.102;2023-05-10T08:29:14;0.30;;;0.10;;
15573;SDS011;7888;46.748;8.102;2023-05-10T08:31:40;0.70;;;0.30;;
15573;SDS011;7888;46.748;8.102;2023-05-10T08:34:06;0.20;;;0.20;;
15573;SDS011;7888;46.748;8.102;2023-05-10T08:36:32;0.90;;;0.40;;
15573;SDS011;7888;46.748;8.102;2023-05-10T08:38:58;0.63;;;0.10;;
15573;SDS011;7888;46.748;8.102;2023-05-10T08:41:25;0.23;;;0.20;;
15573;SDS011;7888;46.748;8.102;2023-05-10T08:43:54;1.60;;;0.30;;
15573;SDS011;7888;46.748;8.102;2023-05-10T08:46:20;0.80;;;0.20;;
15573;SDS011;7888;46.748;8.102;2023-05-10T08:48:48;0.30;;;0.30;;
15573;SDS011;7888;46.748;8.102;2023-05-10T08:51:20;1.33;;;0.50;;
15573;SDS011;7888;46.748;8.102;2023-05-10T08:53:51;0.20;;;0.20;;
15573;SDS011;7888;46.748;8.102;2023-05-10T08:56:17;0.23;;;0.23;;
15573;SDS011;7888;46.748;8.102;2023-05-10T08:58:45;0.83;;;0.50;;
15573;SDS011;7888;46.748;8.102;2023-05-10T09:01:11;0.50;;;0.30;;
15573;SDS011;7888;46.748;8.102;2023-05-10T09:03:39;1.03;;;0.40;;
15573;SDS011;7888;46.748;8.102;2023-05-10T09:06:05;0.70;;;0.30;;
15573;SDS011;7888;46.748;8.102;2023-05-10T09:08:33;1.90;;;0.40;;
15573;SDS011;7888;46.748;8.102;2023-05-10T09:11:02;1.70;;;0.50;;
15573;SDS011;7888;46.748;8.102;2023-05-10T09:13:28;1.07;;;0.40;;
15573;SDS011;7888;46.748;8.102;2023-05-10T09:15:54;0.33;;;0.33;;
15573;SDS011;7888;46.748;8.102;2023-05-10T09:18:20;0.83;;;0.40;;
15573;SDS011;7888;46.748;8.102;2023-05-10T09:20:46;0.60;;;0.40;;
15573;SDS011;7888;46.748;8.102;2023-05-10T09:23:13;0.47;;;0.37;;
15573;SDS011;7888;46.748;8.102;2023-05-10T09:25:40;0.30;;;0.30;;
15573;SDS011;7888;46.748;8.102;2023-05-10T09:28:07;0.43;;;0.30;;
15573;SDS011;7888;46.748;8.102;2023-05-10T09:30:34;0.20;;;0.20;;
15573;SDS011;7888;46.748;8.102;2023-05-10T09:33:01;2.50;;;0.60;;
15573;SDS011;7888;46.748;8.102;2023-05-10T09:35:28;1.33;;;0.20;;
15573;SDS011;7888;46.748;8.102;2023-05-10T09:37:58;0.70;;;0.33;;
15573;SDS011;7888;46.748;8.102;2023-05-10T09:40:28;0.30;;;0.30;;
15573;SDS011;7888;46.748;8.102;2023-05-10T09:42:56;0.50;;;0.30;;
15573;SDS011;7888;46.748;8.102;2023-05-10T09:45:27;1.20;;;0.60;;
15573;SDS011;7888;46.748;8.102;2023-05-10T09:47:59;0.77;;;0.47;;
15573;SDS011;7888;46.748;8.102;2023-05-10T09:50:27;1.33;;;0.50;;
15573;SDS011;7888;46.748;8.102;2023-05-10T09:55:37;0.33;;;0.33;;
15573;SDS011;7888;46.748;8.102;2023-05-10T09:58:03;0.93;;;0.50;;
15573;SDS011;7888;46.748;8.102;2023-05-10T10:00:34;0.63;;;0.50;;
15573;SDS011;7888;46.748;8.102;2023-05-10T10:03:03;0.50;;;0.43;;
15573;SDS011;7888;46.748;8.102;2023-05-10T10:08:01;1.13;;;0.37;;
15573;SDS011;7888;46.748;8.102;2023-05-10T10:10:29;1.23;;;0.50;;
15573;SDS011;7888;46.748;8.102;2023-05-10T10:12:57;0.70;;;0.30;;
15573;SDS011;7888;46.748;8.102;2023-05-10T10:15:24;2.30;;;0.67;;
15573;SDS011;7888;46.748;8.102;2023-05-10T10:17:51;0.87;;;0.40;;
15573;SDS011;7888;46.748;8.102;2023-05-10T10:20:19;3.40;;;0.40;;
15573;SDS011;7888;46.748;8.102;2023-05-10T10:22:47;0.30;;;0.30;;
15573;SDS011;7888;46.748;8.102;2023-05-10T10:25:15;0.70;;;0.40;;
15573;SDS011;7888;46.748;8.102;2023-05-10T10:27:45;2.30;;;0.50;;
15573;SDS011;7888;46.748;8.102;2023-05-10T10:30:28;1.70;;;0.50;;
15573;SDS011;7888;46.748;8.102;2023-05-10T10:36:05;0.40;;;0.30;;
15573;SDS011;7888;46.748;8.102;2023-05-10T10:41:35;0.87;;;0.53;;
15573;SDS011;7888;46.748;8.102;2023-05-10T10:47:01;1.07;;;0.30;;
15573;SDS011;7888;46.748;8.102;2023-05-10T10:58:08;1.83;;;0.40;;
15573;SDS011;7888;46.748;8.102;2023-05-10T11:00:32;0.77;;;0.40;;
15573;SDS011;7888;46.748;8.102;2023-05-10T11:05:47;0.53;;;0.37;;
15573;SDS011;7888;46.748;8.102;2023-05-10T11:08:30;0.50;;;0.40;;
15573;SDS011;7888;46.748;8.102;2023-05-10T11:16:13;1.00;;;0.30;;
15573;SDS011;7888;46.748;8.102;2023-05-10T11:21:28;0.30;;;0.30;;
15573;SDS011;7888;46.748;8.102;2023-05-10T11:23:56;0.20;;;0.20;;
15573;SDS011;7888;46.748;8.102;2023-05-10T11:26:31;3.07;;;0.30;;
15573;SDS011;7888;46.748;8.102;2023-05-10T11:28:59;0.47;;;0.40;;
15573;SDS011;7888;46.748;8.102;2023-05-10T11:31:27;0.30;;;0.20;;
15573;SDS011;7888;46.748;8.102;2023-05-10T11:33:54;0.60;;;0.33;;
15573;SDS011;7888;46.748;8.102;2023-05-10T11:36:26;0.30;;;0.30;;
15573;SDS011;7888;46.748;8.102;2023-05-10T11:39:00;1.37;;;0.50;;
15573;SDS011;7888;46.748;8.102;2023-05-10T11:41:28;0.43;;;0.20;;
15573;SDS011;7888;46.748;8.102;2023-05-10T11:43:56;0.43;;;0.33;;
15573;SDS011;7888;46.748;8.102;2023-05-10T11:46:24;1.30;;;0.40;;
15573;SDS011;7888;46.748;8.102;2023-05-10T11:48:52;0.77;;;0.30;;
15573;SDS011;7888;46.748;8.102;2023-05-10T11:51:26;1.83;;;0.40;;
15573;SDS011;7888;46.748;8.102;2023-05-10T11:53:53;0.40;;;0.20;;
15573;SDS011;7888;46.748;8.102;2023-05-10T11:56:21;0.30;;;0.30;;
15573;SDS011;7888;46.748;8.102;2023-05-10T11:58:57;0.97;;;0.37;;
15573;SDS011;7888;46.748;8.102;2023-05-10T12:01:25;0.20;;;0.20;;
15573;SDS011;7888;46.748;8.102;2023-05-10T12:03:53;0.50;;;0.30;;
15573;SDS011;7888;46.748;8.102;2023-05-10T12:06:25;1.53;;;0.40;;
15573;SDS011;7888;46.748;8.102;2023-05-10T12:08:54;0.70;;;0.30;;
15573;SDS011;7888;46.748;8.102;2023-05-10T12:11:20;0.10;;;0.10;;
15573;SDS011;7888;46.748;8.102;2023-05-10T12:13:52;0.63;;;0.30;;
15573;SDS011;7888;46.748;8.102;2023-05-10T12:16:20;1.20;;;0.50;;
15573;SDS011;7888;46.748;8.102;2023-05-10T12:18:49;1.70;;;0.57;;
15573;SDS011;7888;46.748;8.102;2023-05-10T12:21:17;3.50;;;1.20;;
15573;SDS011;7888;46.748;8.102;2023-05-10T12:23:45;1.60;;;0.50;;
15573;SDS011;7888;46.748;8.102;2023-05-10T12:26:14;1.20;;;0.40;;
15573;SDS011;7888;46.748;8.102;2023-05-10T12:28:40;1.30;;;0.40;;
15573;SDS011;7888;46.748;8.102;2023-05-10T12:31:06;0.27;;;0.20;;
15573;SDS011;7888;46.748;8.102;2023-05-10T12:33:40;0.40;;;0.27;;
15573;SDS011;7888;46.748;8.102;2023-05-10T12:36:08;0.60;;;0.33;;
15573;SDS011;7888;46.748;8.102;2023-05-10T12:38:40;0.50;;;0.40;;
15573;SDS011;7888;46.748;8.102;2023-05-10T12:41:09;0.50;;;0.37;;
15573;SDS011;7888;46.748;8.102;2023-05-10T12:43:38;0.47;;;0.30;;
15573;SDS011;7888;46.748;8.102;2023-05-10T12:46:08;1.00;;;0.40;;
15573;SDS011;7888;46.748;8.102;2023-05-10T12:48:37;1.27;;;0.43;;
15573;SDS011;7888;46.748;8.102;2023-05-10T12:51:04;0.30;;;0.30;;
15573;SDS011;7888;46.748;8.102;2023-05-10T12:53:34;0.93;;;0.30;;
15573;SDS011;7888;46.748;8.102;2023-05-10T12:56:01;0.67;;;0.30;;
15573;SDS011;7888;46.748;8.102;2023-05-10T12:58:27;0.40;;;0.20;;
15573;SDS011;7888;46.748;8.102;2023-05-10T13:00:52;0.33;;;0.20;;
15573;SDS011;7888;46.748;8.102;2023-05-10T13:03:18;0.70;;;0.30;;
15573;SDS011;7888;46.748;8.102;2023-05-10T13:05:44;1.50;;;0.40;;
15573;SDS011;7888;46.748;8.102;2023-05-10T13:08:10;0.20;;;0.20;;
15573;SDS011;7888;46.748;8.102;2023-05-10T13:10:36;0.57;;;0.30;;
15573;SDS011;7888;46.748;8.102;2023-05-10T13:13:02;0.20;;;0.20;;
15573;SDS011;7888;46.748;8.102;2023-05-10T13:15:27;1.23;;;0.40;;
15573;SDS011;7888;46.748;8.102;2023-05-10T13:17:53;1.30;;;0.50;;
15573;SDS011;7888;46.748;8.102;2023-05-10T13:20:19;0.80;;;0.40;;
15573;SDS011;7888;46.748;8.102;2023-05-10T13:22:45;0.30;;;0.20;;
15573;SDS011;7888;46.748;8.102;2023-05-10T13:25:12;1.80;;;0.47;;
15573;SDS011;7888;46.748;8.102;2023-05-10T13:27:41;0.20;;;0.20;;
15573;SDS011;7888;46.748;8.102;2023-05-10T13:30:07;1.03;;;0.40;;
15573;SDS011;7888;46.748;8.102;2023-05-10T13:32:33;0.93;;;0.30;;
15573;SDS011;7888;46.748;8.102;2023-05-10T13:35:00;0.87;;;0.33;;
15573;SDS011;7888;46.748;8.102;2023-05-10T13:37:28;0.23;;;0.20;;
15573;SDS011;7888;46.748;8.102;2023-05-10T13:39:55;0.33;;;0.20;;
15573;SDS011;7888;46.748;8.102;2023-05-10T13:42:21;0.67;;;0.30;;
15573;SDS011;7888;46.748;8.102;2023-05-10T13:44:48;0.30;;;0.20;;
15573;SDS011;7888;46.748;8.102;2023-05-10T13:47:15;0.40;;;0.30;;
15573;SDS011;7888;46.748;8.102;2023-05-10T13:49:41;0.37;;;0.20;;
15573;SDS011;7888;46.748;8.102;2023-05-10T13:52:07;0.30;;;0.20;;
15573;SDS011;7888;46.748;8.102;2023-05-10T13:54:34;0.20;;;0.20;;
15573;SDS011;7888;46.748;8.102;2023-05-10T13:57:04;0.20;;;0.20;;
15573;SDS011;7888;46.748;8.102;2023-05-10T13:59:30;0.20;;;0.20;;
15573;SDS011;7888;46.748;8.102;2023-05-10T14:01:56;1.23;;;0.20;;
15573;SDS011;7888;46.748;8.102;2023-05-10T14:04:23;0.70;;;0.30;;
15573;SDS011;7888;46.748;8.102;2023-05-10T14:06:49;0.43;;;0.20;;
15573;SDS011;7888;46.748;8.102;2023-05-10T14:09:15;1.50;;;0.33;;
15573;SDS011;7888;46.748;8.102;2023-05-10T14:11:42;0.20;;;0.17;;
15573;SDS011;7888;46.748;8.102;2023-05-10T14:14:11;0.50;;;0.30;;
15573;SDS011;7888;46.748;8.102;2023-05-10T14:16:38;0.30;;;0.30;;
15573;SDS011;7888;46.748;8.102;2023-05-10T14:19:09;0.30;;;0.30;;
15573;SDS011;7888;46.748;8.102;2023-05-10T14:21:35;1.47;;;0.20;;
15573;SDS011;7888;46.748;8.102;2023-05-10T14:24:01;1.63;;;0.50;;
15573;SDS011;7888;46.748;8.102;2023-05-10T14:26:27;0.70;;;0.40;;
15573;SDS011;7888;46.748;8.102;2023-05-10T14:28:53;1.70;;;0.80;;
15573;SDS011;7888;46.748;8.102;2023-05-10T14:31:19;2.17;;;0.93;;
15573;SDS011;7888;46.748;8.102;2023-05-10T14:33:45;1.87;;;0.70;;
15573;SDS011;7888;46.748;8.102;2023-05-10T14:36:12;2.23;;;0.90;;
15573;SDS011;7888;46.748;8.102;2023-05-10T14:38:39;2.90;;;0.50;;
15573;SDS011;7888;46.748;8.102;2023-05-10T14:41:05;1.67;;;0.50;;
15573;SDS011;7888;46.748;8.102;2023-05-10T14:43:31;2.20;;;0.50;;
15573;SDS011;7888;46.748;8.102;2023-05-10T14:45:57;0.57;;;0.40;;
15573;SDS011;7888;46.748;8.102;2023-05-10T14:48:23;1.83;;;0.37;;
15573;SDS011;7888;46.748;8.102;2023-05-10T14:50:49;0.40;;;0.30;;
15573;SDS011;7888;46.748;8.102;2023-05-10T14:53:15;0.30;;;0.30;;
15573;SDS011;7888;46.748;8.102;2023-05-10T14:55:41;1.20;;;0.40;;
15573;SDS011;7888;46.748;8.102;2023-05-10T14:58:07;0.97;;;0.40;;
15573;SDS011;7888;46.748;8.102;2023-05-10T15:00:33;0.53;;;0.37;;
15573;SDS011;7888;46.748;8.102;2023-05-10T15:02:58;1.93;;;0.30;;
15573;SDS011;7888;46.748;8.102;2023-05-10T15:05:24;1.57;;;0.60;;
15573;SDS011;7888;46.748;8.102;2023-05-10T15:07:50;0.60;;;0.30;;
15573;SDS011;7888;46.748;8.102;2023-05-10T15:10:16;0.63;;;0.50;;
15573;SDS011;7888;46.748;8.102;2023-05-10T15:12:43;0.63;;;0.50;;
15573;SDS011;7888;46.748;8.102;2023-05-10T15:15:09;1.07;;;0.50;;
15573;SDS011;7888;46.748;8.102;2023-05-10T15:17:34;0.87;;;0.70;;
15573;SDS011;7888;46.748;8.102;2023-05-10T15:20:01;0.97;;;0.53;;
15573;SDS011;7888;46.748;8.102;2023-05-10T15:22:30;2.93;;;0.60;;
15573;SDS011;7888;46.748;8.102;2023-05-10T15:24:57;1.70;;;0.50;;
15573;SDS011;7888;46.748;8.102;2023-05-10T15:27:24;0.47;;;0.30;;
15573;SDS011;7888;46.748;8.102;2023-05-10T15:29:51;1.90;;;0.60;;
15573;SDS011;7888;46.748;8.102;2023-05-10T15:32:17;0.87;;;0.50;;
15573;SDS011;7888;46.748;8.102;2023-05-10T15:34:42;2.30;;;0.40;;
15573;SDS011;7888;46.748;8.102;2023-05-10T15:37:08;0.93;;;0.50;;
15573;SDS011;7888;46.748;8.102;2023-05-10T15:39:34;0.97;;;0.30;;
15573;SDS011;7888;46.748;8.102;2023-05-10T15:42:00;1.90;;;0.43;;
15573;SDS011;7888;46.748;8.102;2023-05-10T15:44:27;0.70;;;0.50;;